Time;durP1;ratioP1;P1;durP2;ratioP2;P2;SDS_P1;SDS_P2;PMS_P1;PMS_P2;Temp;Humidity;BMP_temperature;BMP_pressure;BME280_temperature;BME280_humidity;BME280_pressure;Samples;Min_cycle;Max_cycle;Signal;HPM_P1;HPM_P2
2023/07/01 00:01:19;;;;;;;5.95;3.80;;;;;;;;;;5101721;28;20206;-68
2023/07/01 00:03:45;;;;;;;4.05;3.78;;;;;;;;;;5101951;28;20199;-68
2023/07/01 00:06:12;;;;;;;4.28;3.90;;;;;;;;;;5101794;28;20199;-68
2023/07/01 00:08:39;;;;;;;9.15;3.80;;;;;;;;;;5102068;28;20556;-68
2023/07/01 00:11:07;;;;;;;3.88;3.55;;;;;;;;;;5101691;28;20433;-68
2023/07/01 00:13:33;;;;;;;4.90;3.28;;;;;;;;;;5101725;28;20237;-68
2023/07/01 00:16:00;;;;;;;4.32;3.10;;;;;;;;;;5101707;28;20536;-68
2023/07/01 00:18:26;;;;;;;3.83;3.55;;;;;;;;;;5101510;28;20196;-68
2023/07/01 00:20:53;;;;;;;3.08;2.88;;;;;;;;;;5101755;28;20495;-68
2023/07/01 00:23:19;;;;;;;3.75;3.25;;;;;;;;;;5101635;28;20203;-68
2023/07/01 00:25:47;;;;;;;3.60;3.30;;;;;;;;;;5101807;28;20518;-68
2023/07/01 00:28:13;;;;;;;2.50;2.40;;;;;;;;;;5101617;28;20596;-68
2023/07/01 00:30:40;;;;;;;2.72;2.53;;;;;;;;;;5101436;28;20376;-68
2023/07/01 00:33:06;;;;;;;2.80;2.60;;;;;;;;;;5101456;28;20224;-69
2023/07/01 00:35:32;;;;;;;5.15;2.60;;;;;;;;;;5101559;28;20203;-69
2023/07/01 00:37:58;;;;;;;3.08;2.65;;;;;;;;;;5101487;28;20512;-68
2023/07/01 00:40:25;;;;;;;4.18;3.80;;;;;;;;;;5101392;28;20245;-68
2023/07/01 00:42:53;;;;;;;4.72;3.85;;;;;;;;;;5101526;28;20538;-68
2023/07/01 00:45:19;;;;;;;3.15;2.85;;;;;;;;;;5101468;28;20206;-68
2023/07/01 00:47:45;;;;;;;3.83;3.00;;;;;;;;;;5101491;28;20200;-68
2023/07/01 00:50:12;;;;;;;3.88;2.67;;;;;;;;;;5101326;28;20429;-68
2023/07/01 00:52:39;;;;;;;3.85;3.03;;;;;;;;;;5101585;28;20235;-68
2023/07/01 00:55:06;;;;;;;3.92;2.75;;;;;;;;;;5104048;28;20199;-68
2023/07/01 00:57:32;;;;;;;4.32;2.65;;;;;;;;;;5096962;28;20202;-68
2023/07/01 01:00:00;;;;;;;3.42;2.95;;;;;;;;;;5104895;28;20214;-68
2023/07/01 01:02:30;;;;;;;2.85;2.70;;;;;;;;;;5104756;28;20222;-68
2023/07/01 01:05:02;;;;;;;3.85;2.75;;;;;;;;;;5105465;28;20203;-68
2023/07/01 01:07:32;;;;;;;3.10;2.60;;;;;;;;;;5104980;28;20195;-68
2023/07/01 01:10:00;;;;;;;4.38;2.70;;;;;;;;;;5105145;28;20199;-68
2023/07/01 01:12:29;;;;;;;2.88;2.47;;;;;;;;;;5104706;28;20442;-68
2023/07/01 01:14:56;;;;;;;2.30;2.22;;;;;;;;;;5104690;28;20200;-68
2023/07/01 01:17:25;;;;;;;4.68;2.40;;;;;;;;;;5104773;28;20331;-68
2023/07/01 01:19:53;;;;;;;2.10;2.00;;;;;;;;;;5104811;28;20207;-68
2023/07/01 01:22:22;;;;;;;2.60;2.40;;;;;;;;;;5104732;28;20212;-68
2023/07/01 01:24:51;;;;;;;3.08;2.72;;;;;;;;;;5104740;28;20553;-68
2023/07/01 01:27:20;;;;;;;2.80;2.63;;;;;;;;;;5104374;28;20581;-68
2023/07/01 01:29:47;;;;;;;2.40;2.22;;;;;;;;;;5104882;28;20437;-68
2023/07/01 01:32:14;;;;;;;2.75;2.55;;;;;;;;;;5104220;28;20207;-68
2023/07/01 01:34:41;;;;;;;2.35;2.15;;;;;;;;;;5104686;28;20503;-68
2023/07/01 01:37:10;;;;;;;3.00;2.20;;;;;;;;;;5103858;28;20468;-68
2023/07/01 01:39:40;;;;;;;2.83;2.63;;;;;;;;;;5096276;28;20207;-68
2023/07/01 01:42:08;;;;;;;3.95;2.17;;;;;;;;;;5104237;28;20211;-68
2023/07/01 01:44:36;;;;;;;2.45;2.33;;;;;;;;;;5096004;28;20376;-68
2023/07/01 01:47:05;;;;;;;2.45;2.35;;;;;;;;;;5104131;28;20396;-68
2023/07/01 01:49:31;;;;;;;2.45;2.35;;;;;;;;;;5104102;28;20202;-68
2023/07/01 01:51:58;;;;;;;2.58;2.20;;;;;;;;;;5103833;28;20454;-68
2023/07/01 01:54:25;;;;;;;3.70;2.75;;;;;;;;;;5104037;28;20279;-68
2023/07/01 01:56:51;;;;;;;3.40;2.45;;;;;;;;;;5104024;28;20206;-68
2023/07/01 01:59:17;;;;;;;5.68;2.60;;;;;;;;;;5104026;28;20199;-68
2023/07/01 02:01:44;;;;;;;2.58;2.20;;;;;;;;;;5103854;28;20222;-68
2023/07/01 02:04:11;;;;;;;7.82;2.25;;;;;;;;;;5103819;28;20196;-68
2023/07/01 02:06:37;;;;;;;2.40;2.20;;;;;;;;;;5095306;28;20196;-68
2023/07/01 02:09:04;;;;;;;3.40;2.15;;;;;;;;;;5103706;28;20210;-68
2023/07/01 02:11:30;;;;;;;2.20;2.00;;;;;;;;;;5103366;28;20204;-68
2023/07/01 02:13:56;;;;;;;2.10;2.00;;;;;;;;;;5103999;28;20219;-68
2023/07/01 02:16:23;;;;;;;3.88;2.70;;;;;;;;;;5103466;28;20199;-68
2023/07/01 02:18:49;;;;;;;2.38;2.28;;;;;;;;;;5103449;28;20207;-68
2023/07/01 02:21:16;;;;;;;2.17;2.00;;;;;;;;;;5103434;28;20521;-68
2023/07/01 02:23:43;;;;;;;2.50;2.30;;;;;;;;;;5103705;28;20430;-68
2023/07/01 02:26:10;;;;;;;2.88;2.10;;;;;;;;;;5103590;28;20561;-68
2023/07/01 02:28:36;;;;;;;3.58;2.15;;;;;;;;;;5103251;28;20253;-68
2023/07/01 02:31:03;;;;;;;2.47;2.33;;;;;;;;;;5103189;28;20207;-68
2023/07/01 02:33:29;;;;;;;2.78;2.17;;;;;;;;;;5103041;28;20553;-68
2023/07/01 02:35:56;;;;;;;2.10;2.00;;;;;;;;;;5103299;28;20222;-68
2023/07/01 02:38:23;;;;;;;4.53;2.22;;;;;;;;;;5103241;28;20199;-68
2023/07/01 02:40:49;;;;;;;2.58;2.35;;;;;;;;;;5103054;28;20204;-68
2023/07/01 02:43:16;;;;;;;2.80;2.60;;;;;;;;;;5102885;28;20202;-68
2023/07/01 02:45:42;;;;;;;6.35;2.50;;;;;;;;;;5103068;28;20274;-68
2023/07/01 02:48:08;;;;;;;5.18;2.63;;;;;;;;;;5102963;28;20206;-68
2023/07/01 02:50:34;;;;;;;2.72;2.50;;;;;;;;;;5102907;28;20522;-68
2023/07/01 02:53:01;;;;;;;3.22;2.33;;;;;;;;;;5103077;28;20235;-68
2023/07/01 02:55:29;;;;;;;3.20;2.35;;;;;;;;;;5102753;28;20213;-68
2023/07/01 02:57:56;;;;;;;2.80;2.42;;;;;;;;;;5103042;28;20268;-68
2023/07/01 03:00:22;;;;;;;4.10;2.47;;;;;;;;;;5102422;28;20206;-68
2023/07/01 03:02:50;;;;;;;5.07;3.00;;;;;;;;;;5102841;28;20241;-68
2023/07/01 03:05:19;;;;;;;2.75;2.42;;;;;;;;;;5102687;28;20275;-68
2023/07/01 03:07:45;;;;;;;2.83;2.63;;;;;;;;;;5102947;28;20500;-68
2023/07/01 03:10:11;;;;;;;3.42;2.65;;;;;;;;;;5102983;28;20508;-68
2023/07/01 03:12:39;;;;;;;3.00;2.67;;;;;;;;;;5102807;28;20433;-68
2023/07/01 03:15:06;;;;;;;3.42;2.80;;;;;;;;;;5102944;28;20200;-68
2023/07/01 03:17:32;;;;;;;3.97;2.80;;;;;;;;;;5102815;28;20263;-68
2023/07/01 03:19:58;;;;;;;2.83;2.63;;;;;;;;;;5102681;28;20394;-68
2023/07/01 03:22:24;;;;;;;3.13;2.70;;;;;;;;;;5102542;28;20224;-68
2023/07/01 03:24:51;;;;;;;3.10;2.90;;;;;;;;;;5102634;28;20196;-68
2023/07/01 03:27:17;;;;;;;3.17;2.88;;;;;;;;;;5102185;28;20219;-68
2023/07/01 03:29:45;;;;;;;6.05;2.45;;;;;;;;;;5102378;28;20195;-68
2023/07/01 03:32:11;;;;;;;4.43;3.03;;;;;;;;;;5102305;28;20200;-68
2023/07/01 03:34:38;;;;;;;2.92;2.72;;;;;;;;;;5102577;28;20222;-68
2023/07/01 03:37:04;;;;;;;3.50;2.80;;;;;;;;;;5102421;28;20237;-68
2023/07/01 03:39:31;;;;;;;7.18;2.97;;;;;;;;;;5102485;28;20403;-68
2023/07/01 03:41:57;;;;;;;2.80;2.60;;;;;;;;;;5102378;28;20207;-68
2023/07/01 03:44:23;;;;;;;3.25;2.92;;;;;;;;;;5102417;28;20199;-68
2023/07/01 03:46:51;;;;;;;2.97;2.78;;;;;;;;;;5102570;28;20200;-68
2023/07/01 03:49:17;;;;;;;2.92;2.83;;;;;;;;;;5102304;28;20199;-68
2023/07/01 03:51:44;;;;;;;2.97;2.67;;;;;;;;;;5102700;28;20233;-68
2023/07/01 03:54:11;;;;;;;6.03;2.90;;;;;;;;;;5102199;28;20215;-68
2023/07/01 03:56:38;;;;;;;4.50;2.67;;;;;;;;;;5101884;28;20275;-68
2023/07/01 03:59:04;;;;;;;2.63;2.45;;;;;;;;;;5102487;28;20237;-68
2023/07/01 04:01:32;;;;;;;3.30;2.97;;;;;;;;;;5102270;28;20219;-68
2023/07/01 04:03:59;;;;;;;3.33;3.00;;;;;;;;;;5102333;28;20227;-68
2023/07/01 04:06:25;;;;;;;3.40;3.10;;;;;;;;;;5101974;28;20230;-68
2023/07/01 04:08:54;;;;;;;4.88;3.08;;;;;;;;;;5101886;28;20210;-68
2023/07/01 04:11:21;;;;;;;3.20;2.90;;;;;;;;;;5101523;28;20199;-68
2023/07/01 04:13:47;;;;;;;3.78;3.40;;;;;;;;;;5102078;28;20220;-68
2023/07/01 04:16:13;;;;;;;6.78;2.83;;;;;;;;;;5101864;28;20204;-68
2023/07/01 04:18:39;;;;;;;2.60;2.50;;;;;;;;;;5101851;28;20577;-68
2023/07/01 04:21:08;;;;;;;3.55;3.00;;;;;;;;;;5101864;28;20199;-68
2023/07/01 04:23:35;;;;;;;2.45;2.25;;;;;;;;;;5101778;28;20195;-68
2023/07/01 04:26:01;;;;;;;3.22;2.75;;;;;;;;;;5101670;28;20200;-68
2023/07/01 04:28:27;;;;;;;3.90;2.80;;;;;;;;;;5101701;28;20223;-68
2023/07/01 04:30:54;;;;;;;3.15;2.85;;;;;;;;;;5105664;28;20199;-68
2023/07/01 04:33:20;;;;;;;2.72;2.63;;;;;;;;;;5105609;28;20554;-68
2023/07/01 04:35:46;;;;;;;2.80;2.70;;;;;;;;;;5105942;28;20522;-68
2023/07/01 04:38:14;;;;;;;2.97;2.67;;;;;;;;;;5105653;28;20411;-68
2023/07/01 04:40:40;;;;;;;3.38;2.80;;;;;;;;;;5105046;28;20204;-68
2023/07/01 04:43:07;;;;;;;2.67;2.58;;;;;;;;;;5105948;28;20507;-68
2023/07/01 04:45:34;;;;;;;2.80;2.70;;;;;;;;;;5105475;28;20507;-68
2023/07/01 04:48:00;;;;;;;3.17;2.97;;;;;;;;;;5105534;28;20199;-68
2023/07/01 04:50:27;;;;;;;3.30;3.10;;;;;;;;;;5105264;28;20207;-68
2023/07/01 04:52:53;;;;;;;4.03;2.90;;;;;;;;;;5105424;28;20208;-68
2023/07/01 04:55:21;;;;;;;2.92;2.75;;;;;;;;;;5105111;28;20218;-69
2023/07/01 04:57:47;;;;;;;3.13;2.97;;;;;;;;;;5097468;28;20460;-68
2023/07/01 05:00:14;;;;;;;3.28;2.80;;;;;;;;;;5105090;28;20397;-68
2023/07/01 05:02:41;;;;;;;2.88;2.67;;;;;;;;;;5105192;28;20662;-68
2023/07/01 05:05:07;;;;;;;4.30;3.03;;;;;;;;;;5105723;28;20203;-68
2023/07/01 05:07:34;;;;;;;3.53;3.22;;;;;;;;;;5104881;28;20199;-68
2023/07/01 05:10:00;;;;;;;3.20;3.00;;;;;;;;;;5102662;28;20208;-68
2023/07/01 05:12:28;;;;;;;4.13;2.92;;;;;;;;;;5097827;28;20527;-68
2023/07/01 05:14:54;;;;;;;6.72;3.15;;;;;;;;;;5099256;28;20230;-68
2023/07/01 05:17:20;;;;;;;3.25;2.72;;;;;;;;;;5099716;28;20219;-68
2023/07/01 05:19:47;;;;;;;3.33;3.10;;;;;;;;;;5095222;28;20203;-68
2023/07/01 05:22:13;;;;;;;3.63;3.33;;;;;;;;;;5104638;28;20234;-68
2023/07/01 05:24:39;;;;;;;3.22;3.03;;;;;;;;;;5103980;28;20191;-68
2023/07/01 05:27:06;;;;;;;3.65;3.25;;;;;;;;;;5104724;28;20223;-68
2023/07/01 05:29:33;;;;;;;4.50;3.60;;;;;;;;;;5103603;28;20200;-68
2023/07/01 05:31:59;;;;;;;4.13;3.20;;;;;;;;;;5103196;28;20203;-68
2023/07/01 05:34:26;;;;;;;5.28;3.60;;;;;;;;;;5103205;28;20426;-68
2023/07/01 05:36:52;;;;;;;3.50;3.03;;;;;;;;;;5103198;28;20222;-68
2023/07/01 05:39:18;;;;;;;3.55;3.35;;;;;;;;;;5103396;28;20214;-68
2023/07/01 05:41:45;;;;;;;3.53;3.33;;;;;;;;;;5102963;28;20208;-68
2023/07/01 05:44:11;;;;;;;3.50;3.20;;;;;;;;;;5104063;28;20380;-69
2023/07/01 05:46:40;;;;;;;4.20;2.95;;;;;;;;;;5104175;28;20196;-69
2023/07/01 05:49:06;;;;;;;4.38;3.50;;;;;;;;;;5104225;28;20499;-68
2023/07/01 05:51:33;;;;;;;4.10;3.33;;;;;;;;;;5103839;28;20214;-69
2023/07/01 05:53:59;;;;;;;3.42;3.17;;;;;;;;;;5103935;28;20219;-68
2023/07/01 05:56:26;;;;;;;4.05;3.22;;;;;;;;;;5103987;28;20203;-68
2023/07/01 05:58:52;;;;;;;5.03;2.90;;;;;;;;;;5103955;28;20241;-68
2023/07/01 06:01:18;;;;;;;3.08;2.60;;;;;;;;;;5103991;28;20206;-68
2023/07/01 06:03:46;;;;;;;3.13;2.92;;;;;;;;;;5103799;28;20487;-68
2023/07/01 06:06:12;;;;;;;7.28;2.90;;;;;;;;;;5104143;28;20208;-68
2023/07/01 06:08:38;;;;;;;3.05;2.75;;;;;;;;;;5103638;28;20210;-68
2023/07/01 06:11:05;;;;;;;3.30;3.00;;;;;;;;;;5103810;28;20222;-68
2023/07/01 06:13:31;;;;;;;3.03;2.80;;;;;;;;;;5103649;28;20222;-68
2023/07/01 06:15:57;;;;;;;3.35;2.90;;;;;;;;;;5103724;28;20199;-68
2023/07/01 06:18:23;;;;;;;3.00;2.70;;;;;;;;;;5104141;28;20200;-68
2023/07/01 06:20:51;;;;;;;5.15;2.95;;;;;;;;;;5103303;28;20500;-69
2023/07/01 06:23:17;;;;;;;4.28;2.50;;;;;;;;;;5103750;28;20215;-69
2023/07/01 06:25:44;;;;;;;3.03;2.75;;;;;;;;;;5103508;28;20261;-69
2023/07/01 06:28:10;;;;;;;6.57;2.63;;;;;;;;;;5103498;28;20411;-69
2023/07/01 06:30:37;;;;;;;3.05;2.65;;;;;;;;;;5103615;28;20200;-69
2023/07/01 06:33:05;;;;;;;6.07;2.70;;;;;;;;;;5103117;28;20207;-69
2023/07/01 06:35:32;;;;;;;2.60;2.38;;;;;;;;;;5103301;28;20531;-69
2023/07/01 06:37:59;;;;;;;2.35;2.25;;;;;;;;;;5103358;28;20360;-69
2023/07/01 06:40:25;;;;;;;5.43;2.33;;;;;;;;;;5103243;28;20203;-68
2023/07/01 06:42:52;;;;;;;2.58;2.08;;;;;;;;;;5103777;28;20203;-68
2023/07/01 06:45:18;;;;;;;3.75;2.08;;;;;;;;;;5103414;28;20192;-68
2023/07/01 06:47:44;;;;;;;3.00;2.20;;;;;;;;;;5103297;28;20203;-68
2023/07/01 06:50:11;;;;;;;2.00;1.77;;;;;;;;;;5103234;28;20196;-68
2023/07/01 06:52:37;;;;;;;2.90;2.35;;;;;;;;;;5102708;28;20504;-68
2023/07/01 06:55:05;;;;;;;3.85;1.95;;;;;;;;;;5103360;28;20445;-68
2023/07/01 06:57:31;;;;;;;3.28;2.15;;;;;;;;;;5102974;28;20199;-68
2023/07/01 06:59:58;;;;;;;2.83;2.20;;;;;;;;;;5102984;28;20211;-68
2023/07/01 07:02:24;;;;;;;3.50;2.20;;;;;;;;;;5103107;28;20195;-68
2023/07/01 07:04:52;;;;;;;7.75;2.28;;;;;;;;;;5102905;28;20202;-68
2023/07/01 07:07:18;;;;;;;1.98;1.80;;;;;;;;;;5102902;28;20196;-68
2023/07/01 07:09:44;;;;;;;2.78;1.80;;;;;;;;;;5102885;28;20499;-68
2023/07/01 07:12:12;;;;;;;4.05;2.13;;;;;;;;;;5102681;28;20215;-68
2023/07/01 07:14:39;;;;;;;3.10;1.80;;;;;;;;;;5102503;28;20445;-68
2023/07/01 07:17:06;;;;;;;1.83;1.73;;;;;;;;;;5103076;28;20241;-68
2023/07/01 07:19:32;;;;;;;2.38;1.90;;;;;;;;;;5102873;28;20206;-69
2023/07/01 07:21:58;;;;;;;2.53;1.73;;;;;;;;;;5102608;28;20196;-69
2023/07/01 07:24:24;;;;;;;4.40;1.85;;;;;;;;;;5102829;28;20198;-69
2023/07/01 07:26:55;;;;;;;1.80;1.60;;;;;;;;;;5102461;28;20199;-69
2023/07/01 07:29:23;;;;;;;1.70;1.60;;;;;;;;;;5102670;28;20196;-69
2023/07/01 07:31:49;;;;;;;6.47;1.60;;;;;;;;;;5102309;28;20239;-69
2023/07/01 07:34:15;;;;;;;4.68;1.58;;;;;;;;;;5102628;28;20224;-68
2023/07/01 07:36:42;;;;;;;2.63;1.70;;;;;;;;;;5102508;28;20195;-69
2023/07/01 07:39:09;;;;;;;5.18;1.67;;;;;;;;;;5102586;28;20195;-68
2023/07/01 07:41:36;;;;;;;6.70;1.60;;;;;;;;;;5102191;28;20503;-68
2023/07/01 07:44:02;;;;;;;2.20;1.30;;;;;;;;;;5102764;28;20196;-68
2023/07/01 07:46:30;;;;;;;4.72;1.40;;;;;;;;;;5102682;28;20204;-68
2023/07/01 07:48:56;;;;;;;1.95;1.85;;;;;;;;;;5094296;28;20398;-68
2023/07/01 07:51:22;;;;;;;2.70;1.50;;;;;;;;;;5102277;28;20199;-69
2023/07/01 07:53:49;;;;;;;4.30;2.10;;;;;;;;;;5102509;28;20199;-69
2023/07/01 07:56:15;;;;;;;6.22;1.77;;;;;;;;;;5102377;28;20214;-69
2023/07/01 07:58:41;;;;;;;1.85;1.50;;;;;;;;;;5102316;28;20209;-69
2023/07/01 08:01:07;;;;;;;2.38;1.63;;;;;;;;;;5102447;28;20507;-69
2023/07/01 08:03:35;;;;;;;4.63;1.45;;;;;;;;;;5102640;28;20391;-69
2023/07/01 08:06:01;;;;;;;5.60;1.70;;;;;;;;;;5106644;28;20198;-69
2023/07/01 08:08:28;;;;;;;4.50;1.50;;;;;;;;;;5106490;28;20199;-68
2023/07/01 08:10:54;;;;;;;3.22;1.50;;;;;;;;;;5106085;28;20218;-68
2023/07/01 08:13:20;;;;;;;1.80;1.60;;;;;;;;;;5106224;28;20215;-68
2023/07/01 08:15:47;;;;;;;7.55;1.63;;;;;;;;;;5105958;28;20223;-68
2023/07/01 08:18:13;;;;;;;5.15;2.10;;;;;;;;;;5106427;28;20209;-68
2023/07/01 08:20:41;;;;;;;1.85;1.75;;;;;;;;;;5105957;28;20202;-70
2023/07/01 08:23:07;;;;;;;3.38;2.08;;;;;;;;;;5106409;28;20395;-68
2023/07/01 08:25:33;;;;;;;5.30;1.58;;;;;;;;;;5106433;28;20191;-68
2023/07/01 08:28:00;;;;;;;6.93;1.70;;;;;;;;;;5106300;28;20342;-69
2023/07/01 08:30:26;;;;;;;4.00;1.70;;;;;;;;;;5106221;28;20232;-69
2023/07/01 08:32:52;;;;;;;3.35;1.77;;;;;;;;;;5106069;28;20379;-69
2023/07/01 08:35:19;;;;;;;2.83;1.52;;;;;;;;;;5105843;28;20227;-69
2023/07/01 08:37:46;;;;;;;3.10;1.73;;;;;;;;;;5106183;28;20410;-69
2023/07/01 08:40:13;;;;;;;4.65;1.70;;;;;;;;;;5105478;28;20233;-69
2023/07/01 08:42:42;;;;;;;2.88;1.70;;;;;;;;;;5105677;28;20221;-69
2023/07/01 08:45:09;;;;;;;3.05;1.67;;;;;;;;;;5105622;28;20269;-69
2023/07/01 08:47:36;;;;;;;3.53;1.73;;;;;;;;;;5105438;28;20203;-68
2023/07/01 08:50:05;;;;;;;2.38;1.60;;;;;;;;;;5105298;28;20202;-68
2023/07/01 08:52:36;;;;;;;1.92;1.52;;;;;;;;;;5105284;28;20202;-68
2023/07/01 08:55:05;;;;;;;2.42;1.67;;;;;;;;;;5097633;28;20531;-68
2023/07/01 08:57:31;;;;;;;4.13;1.85;;;;;;;;;;5105247;28;20195;-68
2023/07/01 08:59:58;;;;;;;4.05;1.60;;;;;;;;;;5105084;28;20362;-68
2023/07/01 09:02:25;;;;;;;2.35;1.40;;;;;;;;;;5105214;28;20507;-68
2023/07/01 09:04:51;;;;;;;1.98;1.70;;;;;;;;;;5105253;28;20195;-68
2023/07/01 09:07:17;;;;;;;3.80;1.63;;;;;;;;;;5104918;28;20195;-69
2023/07/01 09:09:44;;;;;;;1.88;1.40;;;;;;;;;;5105054;28;20199;-69
2023/07/01 09:12:12;;;;;;;1.48;1.48;;;;;;;;;;5105010;28;20199;-69
2023/07/01 09:14:58;;;;;;;2.83;1.60;;;;;;;;;;5104631;28;20199;-69
2023/07/01 09:17:27;;;;;;;1.52;1.50;;;;;;;;;;5105113;28;20556;-69
2023/07/01 09:19:53;;;;;;;1.65;1.55;;;;;;;;;;5105079;28;20214;-69
2023/07/01 09:22:19;;;;;;;2.00;1.20;;;;;;;;;;5105334;28;20225;-69
2023/07/01 09:24:46;;;;;;;4.57;1.45;;;;;;;;;;5105035;28;20198;-69
2023/07/01 09:27:13;;;;;;;3.17;1.60;;;;;;;;;;5104754;28;20278;-69
2023/07/01 09:29:40;;;;;;;3.53;1.33;;;;;;;;;;5104853;28;20503;-69
2023/07/01 09:32:07;;;;;;;3.83;1.55;;;;;;;;;;5104555;28;20400;-69
2023/07/01 09:34:50;;;;;;;1.35;1.20;;;;;;;;;;5104681;28;20195;-69
2023/07/01 09:37:17;;;;;;;2.78;1.25;;;;;;;;;;5098564;28;20207;-69
2023/07/01 09:39:43;;;;;;;2.50;1.42;;;;;;;;;;5104579;28;20195;-69
2023/07/01 09:42:10;;;;;;;1.50;1.48;;;;;;;;;;5104365;28;20196;-68
2023/07/01 09:44:38;;;;;;;2.85;1.60;;;;;;;;;;5104429;28;20206;-68
2023/07/01 09:47:04;;;;;;;1.80;1.15;;;;;;;;;;5104635;28;20365;-68
2023/07/01 09:49:36;;;;;;;2.78;1.05;;;;;;;;;;5104514;28;20213;-68
2023/07/01 09:52:03;;;;;;;3.35;1.30;;;;;;;;;;5104015;28;20459;-68
2023/07/01 09:54:30;;;;;;;3.28;1.10;;;;;;;;;;5104258;28;20196;-68
2023/07/01 09:56:57;;;;;;;1.40;1.30;;;;;;;;;;5103959;28;20215;-68
2023/07/01 09:59:24;;;;;;;2.97;1.20;;;;;;;;;;5104169;28;20266;-68
2023/07/01 10:01:55;;;;;;;1.30;1.20;;;;;;;;;;5104068;28;20230;-68
2023/07/01 10:04:25;;;;;;;1.08;1.08;;;;;;;;;;5104365;28;20368;-68
2023/07/01 10:06:51;;;;;;;1.85;1.30;;;;;;;;;;5104121;28;20370;-68
2023/07/01 10:09:17;;;;;;;0.90;0.90;;;;;;;;;;5104000;28;20203;-68
2023/07/01 10:11:44;;;;;;;3.17;1.10;;;;;;;;;;5103788;28;20202;-69
2023/07/01 10:14:10;;;;;;;2.05;1.48;;;;;;;;;;5103934;28;20195;-69
2023/07/01 10:16:45;;;;;;;2.22;2.10;;;;;;;;;;5103789;28;20437;-69
2023/07/01 10:19:26;;;;;;;3.50;1.70;;;;;;;;;;5096455;28;20205;-69
2023/07/01 10:21:54;;;;;;;5.82;1.77;;;;;;;;;;5103307;28;20199;-69
2023/07/01 10:24:35;;;;;;;2.53;2.35;;;;;;;;;;5103617;28;20503;-69
2023/07/01 10:27:01;;;;;;;1.70;1.60;;;;;;;;;;5102698;28;20213;-69
2023/07/01 10:29:40;;;;;;;3.10;1.80;;;;;;;;;;5103631;28;20194;-69
2023/07/01 10:32:25;;;;;;;2.05;1.40;;;;;;;;;;5095034;28;20206;-69
2023/07/01 10:35:14;;;;;;;2.80;1.52;;;;;;;;;;5103431;28;20410;-69
2023/07/01 10:37:42;;;;;;;4.53;1.27;;;;;;;;;;5103399;28;20217;-68
2023/07/01 10:40:24;;;;;;;1.30;1.30;;;;;;;;;;5103352;28;20203;-68
2023/07/01 10:42:50;;;;;;;1.67;1.58;;;;;;;;;;5102050;28;20203;-68
2023/07/01 10:45:31;;;;;;;2.58;1.30;;;;;;;;;;5103041;28;20397;-68
2023/07/01 10:48:13;;;;;;;2.00;1.20;;;;;;;;;;5102305;28;20274;-68
2023/07/01 10:50:54;;;;;;;1.60;1.50;;;;;;;;;;5103078;28;20195;-68
2023/07/01 10:53:22;;;;;;;1.63;1.52;;;;;;;;;;5096538;28;20270;-68
2023/07/01 10:55:49;;;;;;;4.38;1.40;;;;;;;;;;5102834;28;20223;-68
2023/07/01 10:58:21;;;;;;;3.17;1.70;;;;;;;;;;5103191;28;20211;-68
2023/07/01 11:00:47;;;;;;;2.25;1.48;;;;;;;;;;5102905;28;20264;-68
2023/07/01 11:03:28;;;;;;;6.75;1.48;;;;;;;;;;5103039;28;20199;-68
2023/07/01 11:05:56;;;;;;;1.27;1.23;;;;;;;;;;5101825;28;20262;-68
2023/07/01 11:08:24;;;;;;;5.00;1.70;;;;;;;;;;5102883;28;20198;-68
2023/07/01 11:10:51;;;;;;;1.20;1.20;;;;;;;;;;5102796;28;20203;-69
2023/07/01 11:13:18;;;;;;;2.03;1.70;;;;;;;;;;5102872;28;20187;-68
2023/07/01 11:15:58;;;;;;;2.28;1.50;;;;;;;;;;5102470;28;20565;-68
2023/07/01 11:18:39;;;;;;;2.83;1.95;;;;;;;;;;5102753;28;20319;-68
2023/07/01 11:21:06;;;;;;;5.00;2.28;;;;;;;;;;5102389;28;20195;-68
2023/07/01 11:23:33;;;;;;;2.38;2.17;;;;;;;;;;5102786;28;20217;-68
2023/07/01 11:25:59;;;;;;;4.32;2.22;;;;;;;;;;5103007;28;20211;-68
2023/07/01 11:28:33;;;;;;;4.10;2.35;;;;;;;;;;5102573;28;20227;-69
2023/07/01 11:31:09;;;;;;;5.00;2.15;;;;;;;;;;5102115;28;20207;-69
2023/07/01 11:33:35;;;;;;;3.20;2.35;;;;;;;;;;5102695;28;20213;-69
2023/07/01 11:36:01;;;;;;;2.90;2.70;;;;;;;;;;5102203;28;20222;-69
2023/07/01 11:38:29;;;;;;;4.28;2.65;;;;;;;;;;5102402;28;20570;-69
2023/07/01 11:40:57;;;;;;;2.60;2.50;;;;;;;;;;5102131;28;20232;-69
2023/07/01 11:43:23;;;;;;;2.97;2.85;;;;;;;;;;5101642;28;20464;-69
2023/07/01 11:45:50;;;;;;;3.20;2.90;;;;;;;;;;5103030;28;20201;-69
2023/07/01 11:48:16;;;;;;;4.07;2.72;;;;;;;;;;5103144;28;20395;-69
2023/07/01 11:50:50;;;;;;;5.72;2.70;;;;;;;;;;5102396;28;20202;-69
2023/07/01 11:53:17;;;;;;;7.25;3.30;;;;;;;;;;5087377;28;20521;-69
2023/07/01 11:55:43;;;;;;;3.10;2.80;;;;;;;;;;5102639;28;20603;-69
2023/07/01 12:01:04;;;;;;;4.38;2.92;;;;;;;;;;5173025;27;20544;-70
2023/07/01 12:03:33;;;;;;;6.18;3.08;;;;;;;;;;5174279;27;20363;-70
2023/07/01 12:06:00;;;;;;;6.43;3.65;;;;;;;;;;5172320;27;20227;-70
2023/07/01 12:08:26;;;;;;;5.22;3.33;;;;;;;;;;5170949;27;20200;-70
2023/07/01 12:10:53;;;;;;;5.63;3.30;;;;;;;;;;5171664;27;20200;-70
2023/07/01 12:13:29;;;;;;;3.08;2.83;;;;;;;;;;5174186;27;20193;-70
2023/07/01 12:15:55;;;;;;;2.92;2.72;;;;;;;;;;5172836;27;20196;-70
2023/07/01 12:18:26;;;;;;;2.70;2.50;;;;;;;;;;5170836;27;20193;-70
2023/07/01 12:20:52;;;;;;;3.95;2.60;;;;;;;;;;5170777;27;20283;-70
2023/07/01 12:23:19;;;;;;;5.60;2.55;;;;;;;;;;5173849;27;20256;-70
2023/07/01 12:25:45;;;;;;;5.18;2.30;;;;;;;;;;5174090;27;20500;-70
2023/07/01 12:28:11;;;;;;;4.30;2.47;;;;;;;;;;5173899;27;20220;-70
2023/07/01 12:30:38;;;;;;;3.95;2.33;;;;;;;;;;5160271;27;20553;-71
2023/07/01 12:33:04;;;;;;;4.13;2.35;;;;;;;;;;5164756;27;20212;-70
2023/07/01 12:35:32;;;;;;;4.50;2.30;;;;;;;;;;5164882;27;20197;-70
2023/07/01 12:37:59;;;;;;;3.15;2.08;;;;;;;;;;5164364;27;20213;-70
2023/07/01 12:40:26;;;;;;;3.03;2.78;;;;;;;;;;5168492;27;20590;-70
2023/07/01 12:42:53;;;;;;;3.80;2.30;;;;;;;;;;5167394;27;20208;-70
2023/07/01 12:45:20;;;;;;;3.50;3.17;;;;;;;;;;5164368;27;20208;-70
2023/07/01 12:47:46;;;;;;;3.55;2.10;;;;;;;;;;5172255;27;20204;-70
2023/07/01 12:50:13;;;;;;;4.13;1.40;;;;;;;;;;5160712;27;20393;-70
2023/07/01 12:52:40;;;;;;;2.45;1.60;;;;;;;;;;5162287;27;20216;-70
2023/07/01 12:55:08;;;;;;;1.65;1.55;;;;;;;;;;5165230;27;20374;-70
2023/07/01 12:57:35;;;;;;;1.75;1.73;;;;;;;;;;5162076;27;20208;-70
2023/07/01 13:00:01;;;;;;;2.20;2.10;;;;;;;;;;5165491;27;20261;-71
2023/07/01 13:02:27;;;;;;;2.67;2.17;;;;;;;;;;5163741;27;20472;-71
2023/07/01 13:04:55;;;;;;;2.00;1.58;;;;;;;;;;5167289;27;20209;-71
2023/07/01 13:07:21;;;;;;;1.52;1.42;;;;;;;;;;5172770;27;20192;-71
2023/07/01 13:09:50;;;;;;;1.85;1.55;;;;;;;;;;5172681;27;20196;-71
2023/07/01 13:12:19;;;;;;;4.97;1.60;;;;;;;;;;5134020;27;20197;-71
2023/07/01 13:14:45;;;;;;;6.43;1.20;;;;;;;;;;5158444;27;20260;-71
2023/07/01 13:17:12;;;;;;;1.45;1.30;;;;;;;;;;5154937;27;20194;-71
2023/07/01 13:19:38;;;;;;;2.28;1.27;;;;;;;;;;5155060;27;20563;-71
2023/07/01 13:22:04;;;;;;;4.57;1.50;;;;;;;;;;5156501;27;20193;-71
2023/07/01 13:24:36;;;;;;;1.63;1.27;;;;;;;;;;5158369;27;20493;-71
2023/07/01 13:27:06;;;;;;;0.98;0.98;;;;;;;;;;5149749;27;20503;-71
2023/07/01 13:29:35;;;;;;;1.10;1.10;;;;;;;;;;5158304;27;20189;-71
2023/07/01 13:32:02;;;;;;;1.25;1.15;;;;;;;;;;5148221;27;20206;-71
2023/07/01 13:34:29;;;;;;;2.70;1.50;;;;;;;;;;5154435;27;20194;-71
2023/07/01 13:36:55;;;;;;;2.38;1.25;;;;;;;;;;5155165;27;20198;-71
2023/07/01 13:39:25;;;;;;;1.10;1.10;;;;;;;;;;5157990;27;20189;-71
2023/07/01 13:41:52;;;;;;;1.13;1.10;;;;;;;;;;5157768;27;20425;-71
2023/07/01 13:44:20;;;;;;;4.40;1.70;;;;;;;;;;5154186;27;20194;-71
2023/07/01 13:46:46;;;;;;;1.88;1.20;;;;;;;;;;5154256;27;20198;-71
2023/07/01 13:49:15;;;;;;;2.15;1.70;;;;;;;;;;5157884;27;20387;-71
2023/07/01 13:51:41;;;;;;;1.40;1.40;;;;;;;;;;5157705;27;20213;-70
2023/07/01 13:54:09;;;;;;;1.30;1.20;;;;;;;;;;5155393;27;20553;-70
2023/07/01 13:56:36;;;;;;;1.98;1.88;;;;;;;;;;5154188;27;20198;-70
2023/07/01 13:59:03;;;;;;;1.50;1.30;;;;;;;;;;5155234;27;20269;-70
2023/07/01 14:01:30;;;;;;;3.20;1.52;;;;;;;;;;5157544;27;20209;-70
2023/07/01 14:04:00;;;;;;;3.08;1.30;;;;;;;;;;5157091;27;20241;-70
2023/07/01 14:06:26;;;;;;;4.85;1.00;;;;;;;;;;5154179;27;20201;-70
2023/07/01 14:08:53;;;;;;;7.43;1.50;;;;;;;;;;5153975;27;20204;-70
2023/07/01 14:11:20;;;;;;;3.50;0.90;;;;;;;;;;5157092;27;20220;-70
2023/07/01 14:13:50;;;;;;;1.02;0.95;;;;;;;;;;5157400;27;20381;-70
2023/07/01 14:16:17;;;;;;;2.13;0.73;;;;;;;;;;5157231;27;20203;-70
2023/07/01 14:18:45;;;;;;;1.38;1.25;;;;;;;;;;5157503;27;20189;-70
2023/07/01 14:21:12;;;;;;;1.75;1.00;;;;;;;;;;5157268;27;20585;-70
2023/07/01 14:23:39;;;;;;;2.35;1.05;;;;;;;;;;5158589;27;20190;-70
2023/07/01 14:26:09;;;;;;;3.83;1.20;;;;;;;;;;5162246;27;20205;-71
2023/07/01 14:28:36;;;;;;;0.90;0.90;;;;;;;;;;5154091;27;20214;-71
2023/07/01 14:31:08;;;;;;;0.98;0.98;;;;;;;;;;5154572;27;20494;-71
2023/07/01 14:33:35;;;;;;;2.28;0.80;;;;;;;;;;5157269;27;20381;-71
2023/07/01 14:36:03;;;;;;;0.90;0.90;;;;;;;;;;5157182;27;20220;-71
2023/07/01 14:38:48;;;;;;;2.63;0.82;;;;;;;;;;5156962;27;20193;-71
2023/07/01 14:41:24;;;;;;;2.78;0.80;;;;;;;;;;5153923;27;20536;-71
2023/07/01 14:43:52;;;;;;;2.38;0.70;;;;;;;;;;5161429;27;20193;-71
2023/07/01 14:46:18;;;;;;;0.63;0.63;;;;;;;;;;5153358;27;20197;-71
2023/07/01 14:48:45;;;;;;;2.38;0.80;;;;;;;;;;5145405;27;20200;-71